sensor_id;sensor_type;location;lat;lon;timestamp;pressure;altitude;pressure_sealevel;temperature;humidity
64053;BME280;50299;49.524;8.536;2022-10-19T00:01:19;101534.09;;;11.88;84.54
64053;BME280;50299;49.524;8.536;2022-10-19T00:03:49;101544.38;;;11.60;85.68
64053;BME280;50299;49.524;8.536;2022-10-19T00:06:21;101531.44;;;11.83;83.50
64053;BME280;50299;49.524;8.536;2022-10-19T00:11:36;101541.50;;;12.15;83.13
64053;BME280;50299;49.524;8.536;2022-10-19T00:14:16;101535.16;;;12.01;80.93
64053;BME280;50299;49.524;8.536;2022-10-19T00:16:56;101530.94;;;11.81;82.73
64053;BME280;50299;49.524;8.536;2022-10-19T00:19:43;101541.09;;;11.86;82.12
64053;BME280;50299;49.524;8.536;2022-10-19T00:22:24;101535.47;;;11.49;83.69
64053;BME280;50299;49.524;8.536;2022-10-19T00:25:13;101540.13;;;10.80;88.40
64053;BME280;50299;49.524;8.536;2022-10-19T00:27:54;101534.25;;;11.42;85.69
64053;BME280;50299;49.524;8.536;2022-10-19T00:30:29;101533.13;;;11.29;87.34
64053;BME280;50299;49.524;8.536;2022-10-19T00:33:10;101531.84;;;11.63;84.03
64053;BME280;50299;49.524;8.536;2022-10-19T00:35:54;101537.41;;;12.13;84.03
64053;BME280;50299;49.524;8.536;2022-10-19T00:38:28;101540.06;;;12.40;85.32
64053;BME280;50299;49.524;8.536;2022-10-19T00:41:01;101540.81;;;12.32;81.44
64053;BME280;50299;49.524;8.536;2022-10-19T00:46:50;101535.66;;;12.62;76.01
64053;BME280;50299;49.524;8.536;2022-10-19T00:49:32;101539.13;;;12.22;76.58
64053;BME280;50299;49.524;8.536;2022-10-19T00:52:17;101532.66;;;12.13;78.25
64053;BME280;50299;49.524;8.536;2022-10-19T00:55:33;101530.88;;;12.31;80.42
64053;BME280;50299;49.524;8.536;2022-10-19T00:58:16;101522.16;;;12.01;76.97
64053;BME280;50299;49.524;8.536;2022-10-19T01:01:00;101518.78;;;12.27;82.09
64053;BME280;50299;49.524;8.536;2022-10-19T01:03:33;101517.88;;;12.63;85.62
64053;BME280;50299;49.524;8.536;2022-10-19T01:06:03;101514.16;;;12.45;78.56
64053;BME280;50299;49.524;8.536;2022-10-19T01:08:36;101509.19;;;12.33;78.79
64053;BME280;50299;49.524;8.536;2022-10-19T01:17:13;101514.09;;;12.36;78.65
64053;BME280;50299;49.524;8.536;2022-10-19T01:28:57;101502.94;;;12.27;76.22
64053;BME280;50299;49.524;8.536;2022-10-19T01:36:41;101497.50;;;12.00;77.63
64053;BME280;50299;49.524;8.536;2022-10-19T01:42:09;101487.13;;;11.69;79.57
64053;BME280;50299;49.524;8.536;2022-10-19T01:44:52;101482.16;;;11.44;79.28
64053;BME280;50299;49.524;8.536;2022-10-19T01:47:26;101474.72;;;11.67;78.58
64053;BME280;50299;49.524;8.536;2022-10-19T01:50:44;101474.66;;;11.44;79.65
64053;BME280;50299;49.524;8.536;2022-10-19T01:53:17;101471.19;;;11.25;80.03
64053;BME280;50299;49.524;8.536;2022-10-19T01:55:48;101476.25;;;10.95;80.18
64053;BME280;50299;49.524;8.536;2022-10-19T01:58:17;101471.84;;;10.94;82.37
64053;BME280;50299;49.524;8.536;2022-10-19T02:00:49;101462.91;;;11.11;80.60
64053;BME280;50299;49.524;8.536;2022-10-19T02:03:18;101462.88;;;10.70;81.12
64053;BME280;50299;49.524;8.536;2022-10-19T02:05:46;101466.03;;;10.63;80.83
64053;BME280;50299;49.524;8.536;2022-10-19T02:08:21;101459.69;;;10.16;83.17
64053;BME280;50299;49.524;8.536;2022-10-19T02:10:49;101467.09;;;10.02;85.68
64053;BME280;50299;49.524;8.536;2022-10-19T02:13:17;101474.16;;;9.70;85.63
64053;BME280;50299;49.524;8.536;2022-10-19T02:15:46;101464.34;;;10.16;84.71
64053;BME280;50299;49.524;8.536;2022-10-19T02:18:19;101463.63;;;10.43;83.28
64053;BME280;50299;49.524;8.536;2022-10-19T02:20:49;101463.75;;;10.65;83.79
64053;BME280;50299;49.524;8.536;2022-10-19T02:23:18;101453.94;;;10.73;81.22
64053;BME280;50299;49.524;8.536;2022-10-19T02:25:47;101458.41;;;10.88;81.77
64053;BME280;50299;49.524;8.536;2022-10-19T02:28:13;101462.69;;;10.94;80.54
64053;BME280;50299;49.524;8.536;2022-10-19T02:30:40;101458.91;;;10.90;79.64
64053;BME280;50299;49.524;8.536;2022-10-19T02:33:10;101462.91;;;10.97;79.08
64053;BME280;50299;49.524;8.536;2022-10-19T02:35:38;101464.16;;;10.91;78.82
64053;BME280;50299;49.524;8.536;2022-10-19T02:38:09;101463.91;;;10.74;80.20
64053;BME280;50299;49.524;8.536;2022-10-19T02:40:38;101465.69;;;11.11;79.33
64053;BME280;50299;49.524;8.536;2022-10-19T02:43:10;101460.66;;;11.13;80.73
64053;BME280;50299;49.524;8.536;2022-10-19T02:45:43;101461.16;;;11.29;78.55
64053;BME280;50299;49.524;8.536;2022-10-19T02:48:18;101461.41;;;11.55;82.69
64053;BME280;50299;49.524;8.536;2022-10-19T02:50:45;101462.09;;;11.97;81.67
64053;BME280;50299;49.524;8.536;2022-10-19T02:53:15;101453.63;;;11.93;78.83
64053;BME280;50299;49.524;8.536;2022-10-19T02:55:42;101453.31;;;11.95;76.21
64053;BME280;50299;49.524;8.536;2022-10-19T02:58:09;101456.59;;;12.19;81.40
64053;BME280;50299;49.524;8.536;2022-10-19T03:00:35;101459.31;;;12.42;79.58
64053;BME280;50299;49.524;8.536;2022-10-19T03:03:01;101452.78;;;12.38;74.45
64053;BME280;50299;49.524;8.536;2022-10-19T03:05:28;101451.41;;;12.04;76.07
64053;BME280;50299;49.524;8.536;2022-10-19T03:07:55;101458.78;;;11.86;71.96
64053;BME280;50299;49.524;8.536;2022-10-19T03:10:21;101456.88;;;11.73;73.38
64053;BME280;50299;49.524;8.536;2022-10-19T03:12:48;101458.81;;;11.58;75.81
64053;BME280;50299;49.524;8.536;2022-10-19T03:15:17;101444.47;;;11.70;73.79
64053;BME280;50299;49.524;8.536;2022-10-19T03:17:44;101458.91;;;11.67;73.65
64053;BME280;50299;49.524;8.536;2022-10-19T03:20:11;101452.72;;;11.84;78.29
64053;BME280;50299;49.524;8.536;2022-10-19T03:22:37;101450.53;;;11.95;73.45
64053;BME280;50299;49.524;8.536;2022-10-19T03:25:04;101437.44;;;11.87;76.77
64053;BME280;50299;49.524;8.536;2022-10-19T03:27:30;101449.91;;;11.62;72.81
64053;BME280;50299;49.524;8.536;2022-10-19T03:29:57;101452.53;;;11.44;76.19
64053;BME280;50299;49.524;8.536;2022-10-19T03:32:24;101443.84;;;11.73;78.75
64053;BME280;50299;49.524;8.536;2022-10-19T03:34:50;101440.28;;;11.95;78.37
64053;BME280;50299;49.524;8.536;2022-10-19T03:37:17;101446.34;;;11.97;76.78
64053;BME280;50299;49.524;8.536;2022-10-19T03:39:43;101448.59;;;11.95;75.73
64053;BME280;50299;49.524;8.536;2022-10-19T03:42:10;101443.81;;;11.37;75.75
64053;BME280;50299;49.524;8.536;2022-10-19T03:44:36;101443.66;;;10.78;76.20
64053;BME280;50299;49.524;8.536;2022-10-19T03:47:04;101441.16;;;10.17;78.75
64053;BME280;50299;49.524;8.536;2022-10-19T03:49:30;101432.63;;;10.73;80.23
64053;BME280;50299;49.524;8.536;2022-10-19T03:51:59;101434.13;;;11.12;78.74
64053;BME280;50299;49.524;8.536;2022-10-19T03:54:26;101434.53;;;11.19;77.02
64053;BME280;50299;49.524;8.536;2022-10-19T03:56:52;101437.59;;;10.76;75.79
64053;BME280;50299;49.524;8.536;2022-10-19T03:59:19;101431.59;;;10.69;76.73
64053;BME280;50299;49.524;8.536;2022-10-19T04:01:46;101436.75;;;10.62;77.94
64053;BME280;50299;49.524;8.536;2022-10-19T04:04:15;101442.56;;;10.47;76.59
64053;BME280;50299;49.524;8.536;2022-10-19T04:06:44;101447.53;;;9.98;79.16
64053;BME280;50299;49.524;8.536;2022-10-19T04:09:13;101443.59;;;10.18;80.13
64053;BME280;50299;49.524;8.536;2022-10-19T04:11:40;101444.59;;;10.41;79.33
64053;BME280;50299;49.524;8.536;2022-10-19T04:14:07;101437.47;;;10.68;80.84
64053;BME280;50299;49.524;8.536;2022-10-19T04:16:34;101445.91;;;10.90;83.85
64053;BME280;50299;49.524;8.536;2022-10-19T04:19:01;101434.50;;;11.05;77.30
64053;BME280;50299;49.524;8.536;2022-10-19T04:21:33;101436.19;;;11.06;78.87
64053;BME280;50299;49.524;8.536;2022-10-19T04:24:12;101447.03;;;11.03;75.24
64053;BME280;50299;49.524;8.536;2022-10-19T04:26:44;101446.00;;;11.13;75.63
64053;BME280;50299;49.524;8.536;2022-10-19T04:29:15;101444.25;;;11.17;82.33
64053;BME280;50299;49.524;8.536;2022-10-19T04:31:42;101451.00;;;11.24;77.89
64053;BME280;50299;49.524;8.536;2022-10-19T04:34:09;101457.44;;;11.33;75.21
64053;BME280;50299;49.524;8.536;2022-10-19T04:37:01;101462.66;;;11.35;78.07
64053;BME280;50299;49.524;8.536;2022-10-19T04:39:28;101461.38;;;11.19;72.78
64053;BME280;50299;49.524;8.536;2022-10-19T04:41:54;101458.69;;;11.14;79.79
64053;BME280;50299;49.524;8.536;2022-10-19T04:44:21;101457.47;;;11.06;74.63
64053;BME280;50299;49.524;8.536;2022-10-19T04:46:52;101457.28;;;11.16;79.42
64053;BME280;50299;49.524;8.536;2022-10-19T04:49:19;101456.34;;;11.21;74.60
64053;BME280;50299;49.524;8.536;2022-10-19T04:51:45;101447.44;;;10.82;75.52
64053;BME280;50299;49.524;8.536;2022-10-19T04:54:12;101450.00;;;10.93;79.69
64053;BME280;50299;49.524;8.536;2022-10-19T04:56:38;101444.16;;;11.08;76.83
64053;BME280;50299;49.524;8.536;2022-10-19T04:59:08;101438.81;;;11.25;77.04
64053;BME280;50299;49.524;8.536;2022-10-19T05:01:35;101442.09;;;11.27;78.37
64053;BME280;50299;49.524;8.536;2022-10-19T05:04:02;101434.28;;;11.29;79.57
64053;BME280;50299;49.524;8.536;2022-10-19T05:06:30;101432.78;;;11.09;74.88
64053;BME280;50299;49.524;8.536;2022-10-19T05:08:57;101426.03;;;10.88;75.30
64053;BME280;50299;49.524;8.536;2022-10-19T05:11:24;101413.53;;;10.91;76.52
64053;BME280;50299;49.524;8.536;2022-10-19T05:13:50;101425.53;;;10.40;75.04
64053;BME280;50299;49.524;8.536;2022-10-19T05:16:19;101418.63;;;10.23;76.51
64053;BME280;50299;49.524;8.536;2022-10-19T05:18:51;101408.25;;;10.48;85.61
64053;BME280;50299;49.524;8.536;2022-10-19T05:21:18;101414.09;;;10.60;78.84
64053;BME280;50299;49.524;8.536;2022-10-19T05:23:50;101418.00;;;10.59;76.37
64053;BME280;50299;49.524;8.536;2022-10-19T05:26:18;101413.00;;;10.61;84.49
64053;BME280;50299;49.524;8.536;2022-10-19T05:28:51;101414.03;;;10.93;86.43
64053;BME280;50299;49.524;8.536;2022-10-19T05:31:23;101413.63;;;10.99;81.89
64053;BME280;50299;49.524;8.536;2022-10-19T05:33:50;101416.91;;;11.15;80.95
64053;BME280;50299;49.524;8.536;2022-10-19T05:36:23;101417.72;;;11.16;80.38
64053;BME280;50299;49.524;8.536;2022-10-19T05:38:52;101423.75;;;11.31;85.00
64053;BME280;50299;49.524;8.536;2022-10-19T05:41:20;101417.28;;;11.22;80.74
64053;BME280;50299;49.524;8.536;2022-10-19T05:43:51;101415.44;;;11.18;79.96
64053;BME280;50299;49.524;8.536;2022-10-19T05:46:18;101421.22;;;11.07;76.95
64053;BME280;50299;49.524;8.536;2022-10-19T05:48:45;101418.91;;;10.41;72.31
64053;BME280;50299;49.524;8.536;2022-10-19T05:51:14;101420.34;;;10.05;75.67
64053;BME280;50299;49.524;8.536;2022-10-19T05:53:41;101419.44;;;10.10;75.79
64053;BME280;50299;49.524;8.536;2022-10-19T05:56:13;101418.19;;;10.02;76.09
64053;BME280;50299;49.524;8.536;2022-10-19T05:58:42;101426.69;;;10.06;77.02
64053;BME280;50299;49.524;8.536;2022-10-19T06:01:09;101418.44;;;9.87;76.53
64053;BME280;50299;49.524;8.536;2022-10-19T06:03:35;101420.59;;;9.71;75.38
64053;BME280;50299;49.524;8.536;2022-10-19T06:06:04;101417.00;;;9.52;75.60
64053;BME280;50299;49.524;8.536;2022-10-19T06:08:30;101429.31;;;9.59;79.34
64053;BME280;50299;49.524;8.536;2022-10-19T06:13:42;101425.50;;;10.12;85.58
64053;BME280;50299;49.524;8.536;2022-10-19T06:16:11;101424.28;;;10.32;87.57
64053;BME280;50299;49.524;8.536;2022-10-19T06:18:38;101420.97;;;10.49;86.01
64053;BME280;50299;49.524;8.536;2022-10-19T06:21:16;101420.66;;;10.64;84.98
64053;BME280;50299;49.524;8.536;2022-10-19T06:23:43;101427.81;;;10.65;80.17
64053;BME280;50299;49.524;8.536;2022-10-19T06:26:12;101415.66;;;10.66;77.95
64053;BME280;50299;49.524;8.536;2022-10-19T06:28:41;101425.91;;;10.66;78.63
64053;BME280;50299;49.524;8.536;2022-10-19T06:31:08;101419.22;;;10.53;75.82
64053;BME280;50299;49.524;8.536;2022-10-19T06:33:35;101421.34;;;10.42;77.58
64053;BME280;50299;49.524;8.536;2022-10-19T06:36:12;101433.00;;;10.25;76.80
64053;BME280;50299;49.524;8.536;2022-10-19T06:38:40;101424.84;;;10.48;81.99
64053;BME280;50299;49.524;8.536;2022-10-19T06:41:10;101418.09;;;10.54;81.41
64053;BME280;50299;49.524;8.536;2022-10-19T06:43:37;101425.47;;;10.58;77.17
64053;BME280;50299;49.524;8.536;2022-10-19T06:46:12;101432.63;;;10.46;77.00
64053;BME280;50299;49.524;8.536;2022-10-19T06:48:43;101431.81;;;10.45;81.62
64053;BME280;50299;49.524;8.536;2022-10-19T06:51:10;101439.78;;;10.60;81.79
64053;BME280;50299;49.524;8.536;2022-10-19T06:53:38;101438.13;;;10.92;87.46
64053;BME280;50299;49.524;8.536;2022-10-19T06:56:05;101434.50;;;11.05;80.11
64053;BME280;50299;49.524;8.536;2022-10-19T06:58:36;101433.09;;;11.08;79.45
64053;BME280;50299;49.524;8.536;2022-10-19T07:01:04;101438.22;;;11.15;77.88
64053;BME280;50299;49.524;8.536;2022-10-19T07:03:33;101434.31;;;11.02;80.23
64053;BME280;50299;49.524;8.536;2022-10-19T07:06:02;101446.59;;;11.23;83.59
64053;BME280;50299;49.524;8.536;2022-10-19T07:08:30;101441.53;;;11.39;84.79
64053;BME280;50299;49.524;8.536;2022-10-19T07:11:06;101450.41;;;11.77;85.92
64053;BME280;50299;49.524;8.536;2022-10-19T07:13:35;101448.50;;;12.09;83.54
64053;BME280;50299;49.524;8.536;2022-10-19T07:16:07;101437.25;;;12.05;78.54
64053;BME280;50299;49.524;8.536;2022-10-19T07:18:45;101443.53;;;12.20;82.39
64053;BME280;50299;49.524;8.536;2022-10-19T07:21:14;101438.31;;;12.49;84.89
64053;BME280;50299;49.524;8.536;2022-10-19T07:23:44;101443.06;;;12.49;83.81
64053;BME280;50299;49.524;8.536;2022-10-19T07:26:21;101444.63;;;12.64;86.04
64053;BME280;50299;49.524;8.536;2022-10-19T07:28:49;101450.06;;;12.77;76.38
64053;BME280;50299;49.524;8.536;2022-10-19T07:31:18;101461.16;;;12.46;75.03
64053;BME280;50299;49.524;8.536;2022-10-19T07:33:46;101453.16;;;12.45;79.20
64053;BME280;50299;49.524;8.536;2022-10-19T07:36:16;101454.53;;;12.56;82.67
64053;BME280;50299;49.524;8.536;2022-10-19T07:38:43;101450.88;;;12.47;75.32
64053;BME280;50299;49.524;8.536;2022-10-19T07:41:12;101463.81;;;12.51;82.07
64053;BME280;50299;49.524;8.536;2022-10-19T07:43:40;101463.25;;;12.63;79.45
64053;BME280;50299;49.524;8.536;2022-10-19T07:46:21;101457.19;;;12.61;80.68
64053;BME280;50299;49.524;8.536;2022-10-19T07:48:48;101462.75;;;12.70;79.57
64053;BME280;50299;49.524;8.536;2022-10-19T07:51:16;101462.34;;;12.85;80.11
64053;BME280;50299;49.524;8.536;2022-10-19T07:54:02;101467.44;;;12.92;82.23
64053;BME280;50299;49.524;8.536;2022-10-19T07:56:29;101463.75;;;13.14;81.68
64053;BME280;50299;49.524;8.536;2022-10-19T07:58:58;101472.63;;;13.24;82.88
64053;BME280;50299;49.524;8.536;2022-10-19T08:01:32;101471.72;;;13.55;85.94
64053;BME280;50299;49.524;8.536;2022-10-19T08:04:00;101471.25;;;13.79;82.92
64053;BME280;50299;49.524;8.536;2022-10-19T08:06:46;101473.03;;;13.92;84.85
64053;BME280;50299;49.524;8.536;2022-10-19T08:09:13;101479.94;;;13.86;79.04
64053;BME280;50299;49.524;8.536;2022-10-19T08:11:59;101478.28;;;13.94;76.09
64053;BME280;50299;49.524;8.536;2022-10-19T08:14:26;101474.84;;;13.97;74.58
64053;BME280;50299;49.524;8.536;2022-10-19T08:16:53;101470.91;;;13.98;82.00
64053;BME280;50299;49.524;8.536;2022-10-19T08:19:19;101467.97;;;14.20;79.26
64053;BME280;50299;49.524;8.536;2022-10-19T08:21:47;101473.16;;;14.39;79.21
64053;BME280;50299;49.524;8.536;2022-10-19T08:24:15;101472.19;;;14.52;78.87
64053;BME280;50299;49.524;8.536;2022-10-19T08:26:42;101471.84;;;14.54;80.09
64053;BME280;50299;49.524;8.536;2022-10-19T08:29:12;101469.91;;;14.37;68.77
64053;BME280;50299;49.524;8.536;2022-10-19T08:31:39;101467.75;;;14.51;76.64
64053;BME280;50299;49.524;8.536;2022-10-19T08:34:07;101462.16;;;14.60;73.00
64053;BME280;50299;49.524;8.536;2022-10-19T08:36:33;101459.78;;;14.15;68.89
64053;BME280;50299;49.524;8.536;2022-10-19T08:39:03;101468.44;;;14.22;76.02
64053;BME280;50299;49.524;8.536;2022-10-19T08:44:21;101460.59;;;14.80;77.11
64053;BME280;50299;49.524;8.536;2022-10-19T08:49:29;101447.16;;;14.91;75.42
64053;BME280;50299;49.524;8.536;2022-10-19T08:51:59;101446.34;;;14.90;67.04
64053;BME280;50299;49.524;8.536;2022-10-19T08:54:36;101454.63;;;14.99;70.34
64053;BME280;50299;49.524;8.536;2022-10-19T08:57:21;101444.09;;;15.13;73.75
64053;BME280;50299;49.524;8.536;2022-10-19T09:00:00;101448.50;;;15.44;71.19
64053;BME280;50299;49.524;8.536;2022-10-19T09:02:51;101446.88;;;15.85;68.49
64053;BME280;50299;49.524;8.536;2022-10-19T09:05:27;101458.34;;;16.25;67.16
64053;BME280;50299;49.524;8.536;2022-10-19T09:07:57;101455.72;;;16.53;69.41
64053;BME280;50299;49.524;8.536;2022-10-19T09:10:27;101457.53;;;16.82;60.25
64053;BME280;50299;49.524;8.536;2022-10-19T09:13:04;101446.38;;;17.07;66.06
64053;BME280;50299;49.524;8.536;2022-10-19T09:15:41;101445.34;;;16.99;61.10
64053;BME280;50299;49.524;8.536;2022-10-19T09:18:18;101459.78;;;17.01;58.39
64053;BME280;50299;49.524;8.536;2022-10-19T09:20:48;101449.06;;;17.15;62.38
64053;BME280;50299;49.524;8.536;2022-10-19T09:23:39;101445.34;;;16.99;57.24
64053;BME280;50299;49.524;8.536;2022-10-19T09:26:17;101452.19;;;16.32;59.19
64053;BME280;50299;49.524;8.536;2022-10-19T09:28:57;101445.91;;;16.22;60.36
64053;BME280;50299;49.524;8.536;2022-10-19T09:31:36;101444.13;;;16.18;63.02
64053;BME280;50299;49.524;8.536;2022-10-19T09:34:25;101440.47;;;16.38;64.57
64053;BME280;50299;49.524;8.536;2022-10-19T09:36:56;101442.34;;;16.46;61.43
64053;BME280;50299;49.524;8.536;2022-10-19T09:39:24;101435.84;;;16.42;61.34
64053;BME280;50299;49.524;8.536;2022-10-19T09:42:09;101436.41;;;15.82;58.76
64053;BME280;50299;49.524;8.536;2022-10-19T09:44:38;101437.72;;;15.63;64.73
64053;BME280;50299;49.524;8.536;2022-10-19T09:49:46;101442.34;;;16.01;58.45
64053;BME280;50299;49.524;8.536;2022-10-19T09:52:37;101429.97;;;15.48;59.90
64053;BME280;50299;49.524;8.536;2022-10-19T09:57:32;101428.94;;;15.73;63.08
64053;BME280;50299;49.524;8.536;2022-10-19T10:00:25;101424.94;;;16.16;62.91
64053;BME280;50299;49.524;8.536;2022-10-19T10:02:56;101427.22;;;16.02;57.13
64053;BME280;50299;49.524;8.536;2022-10-19T10:08:00;101428.84;;;16.36;62.86
64053;BME280;50299;49.524;8.536;2022-10-19T10:10:29;101423.94;;;16.66;57.81
64053;BME280;50299;49.524;8.536;2022-10-19T10:12:58;101424.34;;;16.56;56.76
64053;BME280;50299;49.524;8.536;2022-10-19T10:15:35;101423.34;;;16.73;54.69
64053;BME280;50299;49.524;8.536;2022-10-19T10:18:11;101421.03;;;17.12;58.86
64053;BME280;50299;49.524;8.536;2022-10-19T10:21:02;101424.47;;;17.33;54.30
64053;BME280;50299;49.524;8.536;2022-10-19T10:23:33;101429.59;;;17.19;53.01
64053;BME280;50299;49.524;8.536;2022-10-19T10:26:02;101425.75;;;17.48;59.04
64053;BME280;50299;49.524;8.536;2022-10-19T10:28:30;101426.25;;;17.78;55.39
64053;BME280;50299;49.524;8.536;2022-10-19T10:31:05;101423.22;;;18.11;52.97
64053;BME280;50299;49.524;8.536;2022-10-19T10:33:35;101423.44;;;18.18;53.19
64053;BME280;50299;49.524;8.536;2022-10-19T10:36:11;101427.97;;;18.70;51.00
64053;BME280;50299;49.524;8.536;2022-10-19T10:38:44;101427.47;;;18.81;52.16
64053;BME280;50299;49.524;8.536;2022-10-19T10:41:17;101423.25;;;18.74;49.68
64053;BME280;50299;49.524;8.536;2022-10-19T10:43:59;101423.00;;;18.80;51.59
64053;BME280;50299;49.524;8.536;2022-10-19T10:46:34;101414.34;;;18.85;50.52
64053;BME280;50299;49.524;8.536;2022-10-19T10:49:04;101401.34;;;18.92;50.72
64053;BME280;50299;49.524;8.536;2022-10-19T10:51:43;101405.16;;;19.55;48.97
64053;BME280;50299;49.524;8.536;2022-10-19T10:54:20;101393.66;;;19.79;47.73
64053;BME280;50299;49.524;8.536;2022-10-19T10:57:03;101395.69;;;20.02;51.40
64053;BME280;50299;49.524;8.536;2022-10-19T10:59:40;101396.03;;;20.19;49.41
64053;BME280;50299;49.524;8.536;2022-10-19T11:04:45;101385.56;;;20.39;44.70
64053;BME280;50299;49.524;8.536;2022-10-19T11:07:20;101391.31;;;20.46;48.66
64053;BME280;50299;49.524;8.536;2022-10-19T11:10:02;101383.63;;;20.89;45.13
64053;BME280;50299;49.524;8.536;2022-10-19T11:12:38;101386.00;;;21.40;49.61
64053;BME280;50299;49.524;8.536;2022-10-19T11:15:13;101382.53;;;21.54;41.99
64053;BME280;50299;49.524;8.536;2022-10-19T11:17:53;101370.34;;;21.43;46.66
64053;BME280;50299;49.524;8.536;2022-10-19T11:20:22;101361.09;;;21.73;43.35
64053;BME280;50299;49.524;8.536;2022-10-19T11:23:10;101362.41;;;21.49;42.92
64053;BME280;50299;49.524;8.536;2022-10-19T11:26:18;101354.97;;;21.67;43.86
64053;BME280;50299;49.524;8.536;2022-10-19T11:31:43;101339.09;;;20.19;43.42
64053;BME280;50299;49.524;8.536;2022-10-19T11:34:41;101335.66;;;19.44;46.00
64053;BME280;50299;49.524;8.536;2022-10-19T11:38:16;101329.50;;;17.61;50.25
64053;BME280;50299;49.524;8.536;2022-10-19T11:44:21;101314.44;;;19.08;47.38
64053;BME280;50299;49.524;8.536;2022-10-19T11:50:10;101300.13;;;16.99;50.13
64053;BME280;50299;49.524;8.536;2022-10-19T11:53:05;101301.56;;;16.68;53.51
64053;BME280;50299;49.524;8.536;2022-10-19T11:55:40;101298.44;;;17.79;54.02
64053;BME280;50299;49.524;8.536;2022-10-19T11:58:33;101287.19;;;18.38;50.38
64053;BME280;50299;49.524;8.536;2022-10-19T12:01:22;101283.97;;;19.07;50.52
64053;BME280;50299;49.524;8.536;2022-10-19T12:06:54;101287.22;;;18.73;47.94
64053;BME280;50299;49.524;8.536;2022-10-19T12:12:43;101281.06;;;18.33;48.68
64053;BME280;50299;49.524;8.536;2022-10-19T12:17:38;101283.97;;;16.56;53.62
64053;BME280;50299;49.524;8.536;2022-10-19T12:20:31;101280.34;;;16.92;52.07
64053;BME280;50299;49.524;8.536;2022-10-19T12:23:10;101281.97;;;17.33;53.05
64053;BME280;50299;49.524;8.536;2022-10-19T12:25:39;101283.94;;;17.33;53.31
64053;BME280;50299;49.524;8.536;2022-10-19T12:28:15;101269.22;;;17.48;51.26
64053;BME280;50299;49.524;8.536;2022-10-19T12:30:44;101275.22;;;17.62;51.47
64053;BME280;50299;49.524;8.536;2022-10-19T12:33:25;101266.56;;;17.67;51.17
64053;BME280;50299;49.524;8.536;2022-10-19T12:36:27;101267.88;;;17.30;50.72
64053;BME280;50299;49.524;8.536;2022-10-19T12:44:22;101262.22;;;16.49;51.37
64053;BME280;50299;49.524;8.536;2022-10-19T12:46:54;101255.25;;;16.80;51.47
64053;BME280;50299;49.524;8.536;2022-10-19T12:52:00;101244.50;;;16.94;53.66
64053;BME280;50299;49.524;8.536;2022-10-19T12:54:34;101242.78;;;17.17;50.39
64053;BME280;50299;49.524;8.536;2022-10-19T12:57:03;101238.75;;;17.02;52.29
64053;BME280;50299;49.524;8.536;2022-10-19T12:59:58;101234.19;;;17.10;50.52
64053;BME280;50299;49.524;8.536;2022-10-19T13:02:31;101234.34;;;17.30;51.30
64053;BME280;50299;49.524;8.536;2022-10-19T13:05:04;101227.00;;;16.44;52.52
64053;BME280;50299;49.524;8.536;2022-10-19T13:07:33;101222.03;;;16.50;52.69
64053;BME280;50299;49.524;8.536;2022-10-19T13:10:04;101220.97;;;15.93;54.48
64053;BME280;50299;49.524;8.536;2022-10-19T13:12:44;101214.47;;;15.44;55.89
64053;BME280;50299;49.524;8.536;2022-10-19T13:15:48;101203.63;;;15.88;54.10
64053;BME280;50299;49.524;8.536;2022-10-19T13:21:52;101200.88;;;14.88;59.06
64053;BME280;50299;49.524;8.536;2022-10-19T13:27:23;101186.47;;;16.10;55.71
64053;BME280;50299;49.524;8.536;2022-10-19T13:29:50;101187.47;;;16.67;54.79
64053;BME280;50299;49.524;8.536;2022-10-19T13:32:40;101189.38;;;16.91;54.79
64053;BME280;50299;49.524;8.536;2022-10-19T13:35:31;101184.31;;;17.24;54.14
64053;BME280;50299;49.524;8.536;2022-10-19T13:43:59;101169.41;;;17.64;53.33
64053;BME280;50299;49.524;8.536;2022-10-19T13:51:54;101165.53;;;17.09;49.92
64053;BME280;50299;49.524;8.536;2022-10-19T13:57:32;101161.75;;;16.49;51.28
64053;BME280;50299;49.524;8.536;2022-10-19T14:05:36;101158.03;;;15.92;51.10
64053;BME280;50299;49.524;8.536;2022-10-19T14:10:37;101155.75;;;16.35;54.79
64053;BME280;50299;49.524;8.536;2022-10-19T14:13:24;101161.63;;;16.05;52.03
64053;BME280;50299;49.524;8.536;2022-10-19T14:15:53;101157.50;;;15.78;53.43
64053;BME280;50299;49.524;8.536;2022-10-19T14:18:55;101160.41;;;15.82;55.04
64053;BME280;50299;49.524;8.536;2022-10-19T14:21:30;101159.97;;;15.79;52.00
64053;BME280;50299;49.524;8.536;2022-10-19T14:23:57;101157.84;;;15.52;54.47
64053;BME280;50299;49.524;8.536;2022-10-19T14:26:27;101159.56;;;15.11;53.76
64053;BME280;50299;49.524;8.536;2022-10-19T14:28:58;101156.03;;;14.90;54.43
64053;BME280;50299;49.524;8.536;2022-10-19T14:31:33;101147.25;;;14.79;53.96
64053;BME280;50299;49.524;8.536;2022-10-19T14:34:01;101129.28;;;14.76;54.29
64053;BME280;50299;49.524;8.536;2022-10-19T14:36:47;101134.22;;;14.92;54.46
64053;BME280;50299;49.524;8.536;2022-10-19T14:39:28;101128.19;;;15.23;53.55
64053;BME280;50299;49.524;8.536;2022-10-19T14:41:55;101128.00;;;15.07;54.45
64053;BME280;50299;49.524;8.536;2022-10-19T14:44:41;101122.84;;;15.30;54.14
64053;BME280;50299;49.524;8.536;2022-10-19T14:47:20;101134.13;;;15.46;52.93
64053;BME280;50299;49.524;8.536;2022-10-19T14:49:47;101124.69;;;15.14;52.98
64053;BME280;50299;49.524;8.536;2022-10-19T14:52:27;101123.03;;;15.13;52.68
64053;BME280;50299;49.524;8.536;2022-10-19T14:54:58;101124.41;;;15.07;54.30
64053;BME280;50299;49.524;8.536;2022-10-19T14:57:31;101129.00;;;15.23;54.31
64053;BME280;50299;49.524;8.536;2022-10-19T15:00:14;101139.50;;;15.05;53.19
64053;BME280;50299;49.524;8.536;2022-10-19T15:02:45;101125.84;;;14.59;53.05
64053;BME280;50299;49.524;8.536;2022-10-19T15:05:21;101120.03;;;14.22;55.40